Time;durP1;ratioP1;P1;durP2;ratioP2;P2;SDS_P1;SDS_P2;PMS_P1;PMS_P2;Temp;Humidity;BMP_temperature;BMP_pressure;BME280_temperature;BME280_humidity;BME280_pressure;Samples;Min_cycle;Max_cycle;Signal;HPM_P1;HPM_P2
2022/04/27 00:01:43;;;;;;;22.30;11.45;;;;;;;-145.69;100.00;72363.63;5072259;28;20435;-72
2022/04/27 00:04:09;;;;;;;22.37;10.33;;;;;;;-145.69;100.00;72363.63;5072254;28;20198;-75
2022/04/27 00:06:37;;;;;;;18.77;9.20;;;;;;;-145.69;100.00;72369.59;5072482;28;20558;-74
2022/04/27 00:09:04;;;;;;;24.47;10.63;;;;;;;-145.69;100.00;72369.59;5071943;28;20604;-75
2022/04/27 00:11:31;;;;;;;20.20;9.97;;;;;;;-145.69;100.00;72363.63;5072578;28;20261;-74
2022/04/27 00:14:03;;;;;;;20.67;10.03;;;;;;;-145.69;100.00;72367.59;5072442;28;20207;-74
2022/04/27 00:16:32;;;;;;;20.77;10.27;;;;;;;-145.69;100.00;72369.59;5072226;28;20689;-74
2022/04/27 00:18:58;;;;;;;26.23;11.33;;;;;;;-145.69;100.00;72373.56;5070494;28;20231;-73
2022/04/27 00:21:25;;;;;;;21.50;10.33;;;;;;;-145.69;100.00;72373.56;5053284;28;20200;-73
2022/04/27 00:23:51;;;;;;;23.73;10.63;;;;;;;-145.69;100.00;72381.53;5052460;28;20215;-72
2022/04/27 00:26:18;;;;;;;22.83;10.30;;;;;;;-145.69;100.00;72381.53;5052312;28;20210;-74
2022/04/27 00:28:45;;;;;;;23.53;10.27;;;;;;;-145.69;100.00;72387.50;5052299;28;20200;-73
2022/04/27 00:31:13;;;;;;;19.93;10.63;;;;;;;-145.69;100.00;72385.50;5051735;28;20685;-72
2022/04/27 00:33:40;;;;;;;23.50;11.17;;;;;;;-145.69;100.00;72393.47;5052246;28;20716;-73
2022/04/27 00:36:06;;;;;;;19.47;9.50;;;;;;;-145.69;100.00;72401.44;5052363;28;20633;-73
2022/04/27 00:38:33;;;;;;;18.93;8.70;;;;;;;-145.69;100.00;72389.50;5064978;28;20214;-72
2022/04/27 00:40:59;;;;;;;16.43;8.50;;;;;;;-145.69;100.00;72393.47;5072239;28;20213;-73
2022/04/27 00:43:37;;;;;;;19.70;8.87;;;;;;;-145.69;100.00;72393.47;5072252;28;20592;-73
2022/04/27 00:46:03;;;;;;;18.90;8.80;;;;;;;-145.69;100.00;72389.50;5071902;28;20202;-73
2022/04/27 00:48:31;;;;;;;18.80;8.80;;;;;;;-145.69;100.00;72389.50;5072069;28;20202;-73
2022/04/27 00:51:02;;;;;;;18.07;8.90;;;;;;;-145.69;100.00;72395.47;5072109;28;20535;-73
2022/04/27 00:53:28;;;;;;;17.70;8.50;;;;;;;-145.69;100.00;72397.44;5072363;28;20249;-73
2022/04/27 00:55:55;;;;;;;15.37;7.97;;;;;;;-145.69;100.00;72393.47;5071250;28;20238;-72
2022/04/27 00:58:25;;;;;;;17.43;8.20;;;;;;;-145.69;100.00;72401.44;5074392;28;20198;-73
2022/04/27 01:00:51;;;;;;;18.93;8.40;;;;;;;-145.69;100.00;72401.44;5075707;28;20198;-73
2022/04/27 01:03:18;;;;;;;17.70;8.17;;;;;;;-145.69;100.00;72401.44;5075182;28;20222;-73
2022/04/27 01:05:47;;;;;;;17.37;8.40;;;;;;;-145.69;100.00;72399.44;5075555;28;20198;-73
2022/04/27 01:08:14;;;;;;;14.43;7.80;;;;;;;-145.69;100.00;72399.44;5075293;28;20217;-73
2022/04/27 01:10:43;;;;;;;19.13;8.23;;;;;;;-145.69;100.00;72411.38;5075840;28;20194;-73
2022/04/27 01:13:10;;;;;;;18.20;8.97;;;;;;;-145.69;100.00;72409.38;5074920;28;20214;-73
2022/04/27 01:15:37;;;;;;;12.83;7.60;;;;;;;-145.69;100.00;72409.38;5075545;28;20231;-73
2022/04/27 01:18:04;;;;;;;13.80;7.23;;;;;;;-145.69;100.00;72413.38;5075207;28;20238;-73
2022/04/27 01:20:36;;;;;;;12.00;6.67;;;;;;;-145.69;100.00;72417.34;5075493;28;20685;-73
2022/04/27 01:23:03;;;;;;;12.87;7.50;;;;;;;-145.69;100.00;72423.31;5075134;28;20198;-73
2022/04/27 01:25:46;;;;;;;14.27;7.80;;;;;;;-145.69;100.00;72421.34;5075356;28;20294;-73
2022/04/27 01:28:13;;;;;;;12.07;7.40;;;;;;;-145.69;100.00;72427.31;5075362;28;20199;-73
2022/04/27 01:30:44;;;;;;;14.47;7.20;;;;;;;-145.69;100.00;72429.28;5075428;28;20213;-73
2022/04/27 01:33:11;;;;;;;14.43;7.47;;;;;;;-145.69;100.00;72429.28;5075110;28;20602;-73
2022/04/27 01:35:42;;;;;;;16.07;8.60;;;;;;;-145.69;100.00;72425.31;5074879;28;20276;-73
2022/04/27 01:38:08;;;;;;;14.97;7.43;;;;;;;-145.69;100.00;72429.28;5075037;28;20206;-73
2022/04/27 01:40:35;;;;;;;15.23;7.40;;;;;;;-145.69;100.00;72427.31;5075008;28;20202;-73
2022/04/27 01:43:02;;;;;;;16.70;7.40;;;;;;;-145.69;100.00;72421.34;5074917;28;20203;-73
2022/04/27 01:45:29;;;;;;;17.80;7.80;;;;;;;-145.69;100.00;72421.34;5074618;28;20210;-73
2022/04/27 01:47:55;;;;;;;12.40;6.93;;;;;;;-145.69;100.00;72417.34;5074864;28;20205;-73
2022/04/27 01:50:21;;;;;;;10.57;6.43;;;;;;;-145.69;100.00;72417.34;5075137;28;20199;-73
2022/04/27 01:55:33;;;;;;;10.27;6.10;;;;;;;-145.69;100.00;72417.34;5074758;28;20291;-73
2022/04/27 01:58:00;;;;;;;12.07;6.57;;;;;;;-145.69;100.00;72411.38;5074247;28;20680;-73
2022/04/27 02:00:26;;;;;;;14.07;7.67;;;;;;;-145.69;100.00;72417.34;5074435;28;20289;-73
2022/04/27 02:02:53;;;;;;;12.77;6.73;;;;;;;-145.69;100.00;72423.31;5074506;28;20248;-73
2022/04/27 02:05:19;;;;;;;13.87;7.37;;;;;;;-145.69;100.00;72413.38;5074761;28;20226;-73
2022/04/27 02:07:45;;;;;;;13.03;7.57;;;;;;;-145.69;100.00;72417.34;5074263;28;20203;-73
2022/04/27 02:10:13;;;;;;;12.60;6.90;;;;;;;-145.69;100.00;72409.38;5073470;28;20664;-73
2022/04/27 02:12:40;;;;;;;10.20;6.40;;;;;;;-145.69;100.00;72415.38;5074225;28;20201;-73
2022/04/27 02:15:09;;;;;;;13.87;6.60;;;;;;;-145.69;100.00;72411.38;5074325;28;20222;-73
2022/04/27 02:17:35;;;;;;;9.77;6.13;;;;;;;-145.69;100.00;72409.38;5074239;28;20277;-73
2022/04/27 02:20:02;;;;;;;14.23;7.83;;;;;;;-145.69;100.00;72409.38;5074261;28;20202;-73
2022/04/27 02:22:28;;;;;;;11.23;6.50;;;;;;;-145.69;100.00;72405.41;5068787;28;20203;-73
2022/04/27 02:24:54;;;;;;;11.40;6.77;;;;;;;-145.69;100.00;72415.38;5053945;28;20203;-73
2022/04/27 02:27:22;;;;;;;10.70;6.50;;;;;;;-145.69;100.00;72405.41;5053902;28;20200;-73
2022/04/27 02:29:49;;;;;;;11.33;6.00;;;;;;;-145.69;100.00;72403.41;5072817;28;20658;-73
2022/04/27 02:32:16;;;;;;;9.63;5.00;;;;;;;-145.69;100.00;72405.41;5073642;28;20662;-73
2022/04/27 02:34:44;;;;;;;7.90;4.53;;;;;;;-145.69;100.00;72403.41;5074143;28;20380;-73
2022/04/27 02:37:11;;;;;;;10.17;5.33;;;;;;;-145.69;100.00;72405.41;5073853;28;20708;-73
2022/04/27 02:39:37;;;;;;;9.03;5.47;;;;;;;-145.69;100.00;72401.44;5073850;28;20210;-74
2022/04/27 02:42:07;;;;;;;10.43;5.80;;;;;;;-145.69;100.00;72417.34;5073571;28;20202;-73
2022/04/27 02:44:35;;;;;;;11.93;5.30;;;;;;;-145.69;100.00;72423.31;5073780;28;20244;-73
2022/04/27 02:47:02;;;;;;;8.07;5.00;;;;;;;-145.69;100.00;72417.34;5073261;28;20730;-73
2022/04/27 02:52:13;;;;;;;8.57;5.03;;;;;;;-145.69;100.00;72427.31;5073382;28;20206;-73
2022/04/27 02:54:42;;;;;;;8.40;5.00;;;;;;;-145.69;100.00;72425.31;5073864;28;20584;-73
2022/04/27 02:57:08;;;;;;;8.63;5.00;;;;;;;-145.69;100.00;72417.34;5073580;28;20234;-73
2022/04/27 02:59:36;;;;;;;9.10;5.30;;;;;;;-145.69;100.00;72417.34;5073220;28;20206;-73
2022/04/27 03:02:02;;;;;;;11.80;5.93;;;;;;;-145.69;100.00;72437.25;5073211;28;20256;-73
2022/04/27 03:04:29;;;;;;;10.90;6.60;;;;;;;-145.69;100.00;72433.28;5073268;28;20206;-73
2022/04/27 03:06:56;;;;;;;11.27;6.57;;;;;;;-145.69;100.00;72433.28;5073252;28;20206;-73
2022/04/27 03:09:23;;;;;;;12.90;6.90;;;;;;;-145.69;100.00;72421.34;5073395;28;20199;-73
2022/04/27 03:11:50;;;;;;;14.73;7.30;;;;;;;-145.69;100.00;72415.38;5073410;28;20645;-73
2022/04/27 03:14:16;;;;;;;13.07;7.50;;;;;;;-145.69;100.00;72423.31;5073006;28;20205;-73
2022/04/27 03:16:44;;;;;;;15.10;7.93;;;;;;;-145.69;100.00;72423.31;5072988;28;20230;-75
2022/04/27 03:19:11;;;;;;;18.23;8.43;;;;;;;-145.69;100.00;72425.31;5073560;28;20198;-73
2022/04/27 03:21:39;;;;;;;15.20;8.33;;;;;;;-145.69;100.00;72441.25;5073271;28;20229;-73
2022/04/27 03:24:06;;;;;;;14.03;7.73;;;;;;;-145.69;100.00;72439.25;5072858;28;20198;-73
2022/04/27 03:26:34;;;;;;;13.77;7.80;;;;;;;-145.69;100.00;72441.25;5072716;28;20199;-74
2022/04/27 03:29:06;;;;;;;15.27;7.50;;;;;;;-145.69;100.00;72443.22;5072442;28;20240;-73
2022/04/27 03:31:33;;;;;;;14.37;7.50;;;;;;;-145.69;100.00;72447.22;5073041;28;20206;-73
2022/04/27 03:34:01;;;;;;;12.90;7.13;;;;;;;-145.69;100.00;72451.19;5072860;28;20241;-73
2022/04/27 03:36:27;;;;;;;14.63;7.50;;;;;;;-145.69;100.00;72451.19;5072860;28;20226;-73
2022/04/27 03:38:54;;;;;;;14.43;7.67;;;;;;;-145.69;100.00;72459.16;5072758;28;20272;-73
2022/04/27 03:41:22;;;;;;;13.30;7.23;;;;;;;-145.69;100.00;72459.16;5072946;28;20198;-73
2022/04/27 03:43:50;;;;;;;14.85;8.20;;;;;;;-145.69;100.00;72451.19;5072375;28;20516;-73
2022/04/27 03:46:19;;;;;;;21.53;9.77;;;;;;;-145.69;100.00;72457.16;5072717;28;20202;-74
2022/04/27 03:48:46;;;;;;;17.10;9.30;;;;;;;-145.69;100.00;72459.16;5072707;28;20203;-73
2022/04/27 03:51:14;;;;;;;19.77;9.60;;;;;;;-145.69;100.00;72465.13;5072690;28;20202;-73
2022/04/27 03:53:41;;;;;;;21.63;10.20;;;;;;;-145.69;100.00;72463.13;5072761;28;20209;-73
2022/04/27 03:56:07;;;;;;;19.23;9.33;;;;;;;-145.69;100.00;72465.13;5072593;28;20231;-73
2022/04/27 03:58:34;;;;;;;19.73;9.23;;;;;;;-145.69;100.00;72461.13;5072333;28;20226;-72
2022/04/27 04:01:00;;;;;;;16.87;8.07;;;;;;;-145.69;100.00;72457.16;5072654;28;20604;-73
2022/04/27 04:03:27;;;;;;;16.60;9.13;;;;;;;-145.69;100.00;72459.16;5072176;28;20209;-73
2022/04/27 04:05:54;;;;;;;17.20;8.27;;;;;;;-145.69;100.00;72453.19;5072794;28;20236;-73
2022/04/27 04:08:22;;;;;;;14.90;8.40;;;;;;;-145.69;100.00;72457.16;5072716;28;20199;-73
2022/04/27 04:10:50;;;;;;;16.90;8.70;;;;;;;-145.69;100.00;72459.16;5072694;28;20317;-73
2022/04/27 04:13:17;;;;;;;14.50;7.67;;;;;;;-145.69;100.00;72457.16;5072011;28;20199;-73
2022/04/27 04:15:43;;;;;;;15.90;7.53;;;;;;;-145.69;100.00;72487.00;5072474;28;20555;-73
2022/04/27 04:18:10;;;;;;;16.40;7.63;;;;;;;-145.69;100.00;72500.94;5072367;28;20721;-73
2022/04/27 04:20:36;;;;;;;14.43;7.67;;;;;;;-145.69;100.00;72512.91;5072309;28;20666;-73
2022/04/27 04:23:07;;;;;;;17.10;8.30;;;;;;;-145.69;100.00;72522.84;5072459;28;20199;-73
2022/04/27 04:28:31;;;;;;;13.50;6.43;;;;;;;-145.69;100.00;72524.84;5072184;28;20608;-73
2022/04/27 04:31:00;;;;;;;14.00;6.83;;;;;;;-145.69;100.00;72520.84;5058904;28;20200;-73
2022/04/27 04:33:28;;;;;;;13.13;6.50;;;;;;;-145.69;100.00;72520.84;5053919;28;20554;-73
2022/04/27 04:35:57;;;;;;;15.87;7.07;;;;;;;-145.69;100.00;72506.91;5056187;28;20274;-73
2022/04/27 04:38:25;;;;;;;12.77;6.37;;;;;;;-145.69;100.00;72504.94;5055938;28;20203;-73
2022/04/27 04:40:53;;;;;;;10.10;5.40;;;;;;;-145.69;100.00;72485.03;5056214;28;20555;-73
2022/04/27 04:43:20;;;;;;;8.37;4.67;;;;;;;-145.69;100.00;72481.03;5056320;28;20257;-73
2022/04/27 04:45:46;;;;;;;8.97;4.83;;;;;;;-145.69;100.00;72465.13;5056273;28;20207;-73
2022/04/27 04:48:13;;;;;;;10.10;5.23;;;;;;;-145.69;100.00;72457.16;5055847;28;20199;-73
2022/04/27 04:50:40;;;;;;;12.97;6.27;;;;;;;-145.69;100.00;72453.19;5056018;28;20605;-73
2022/04/27 04:53:06;;;;;;;10.80;6.10;;;;;;;-145.69;100.00;72457.16;5055799;28;20566;-73
2022/04/27 04:55:33;;;;;;;14.47;7.10;;;;;;;-145.69;100.00;72441.25;5056154;28;20567;-73
2022/04/27 04:58:02;;;;;;;12.07;5.30;;;;;;;-145.69;100.00;72451.19;5062498;28;20191;-73
2022/04/27 05:00:28;;;;;;;11.77;7.05;;;;;;;-145.69;100.00;72441.25;5075116;28;20442;-73
2022/04/27 05:02:55;;;;;;;11.40;5.47;;;;;;;-145.69;100.00;72425.31;5075870;28;20195;-73
2022/04/27 05:05:21;;;;;;;7.30;4.40;;;;;;;-145.69;100.00;72403.41;5075542;28;20206;-73
2022/04/27 05:07:48;;;;;;;7.17;3.97;;;;;;;-145.69;100.00;72391.47;5075119;28;20203;-73
2022/04/27 05:10:15;;;;;;;7.17;4.63;;;;;;;-145.69;100.00;72385.50;5075811;28;20608;-73
2022/04/27 05:12:42;;;;;;;10.83;5.40;;;;;;;-145.69;100.00;72401.44;5075778;28;20198;-73
2022/04/27 05:15:11;;;;;;;7.93;4.67;;;;;;;-145.69;100.00;72381.53;5075295;28;20672;-73
2022/04/27 05:17:38;;;;;;;7.27;4.07;;;;;;;-145.69;100.00;72381.53;5075240;28;20238;-73
2022/04/27 05:20:07;;;;;;;7.53;3.80;;;;;;;-145.69;100.00;72381.53;5075129;28;20207;-73
2022/04/27 05:22:35;;;;;;;5.27;3.37;;;;;;;-145.69;100.00;72401.44;5075616;28;20298;-73
2022/04/27 05:25:03;;;;;;;7.50;3.57;;;;;;;-145.69;100.00;72397.44;5075140;28;20596;-73
2022/04/27 05:27:32;;;;;;;11.53;5.63;;;;;;;-145.69;100.00;72405.41;5074935;28;20222;-73
2022/04/27 05:32:46;;;;;;;10.17;5.93;;;;;;;-145.69;100.00;72399.44;5075048;28;20301;-73
2022/04/27 05:35:12;;;;;;;12.77;6.43;;;;;;;-145.69;100.00;72391.47;5075373;28;20210;-73
2022/04/27 05:37:40;;;;;;;9.97;6.47;;;;;;;-145.69;100.00;72417.34;5075184;28;20253;-73
2022/04/27 05:40:08;;;;;;;12.53;6.73;;;;;;;-145.69;100.00;72395.47;5075176;28;20600;-73
2022/04/27 05:42:37;;;;;;;9.30;5.60;;;;;;;-145.69;100.00;72391.47;5075045;28;20285;-72
2022/04/27 05:45:04;;;;;;;10.73;6.57;;;;;;;-145.69;100.00;72405.41;5073742;28;20202;-73
2022/04/27 05:47:32;;;;;;;14.67;7.97;;;;;;;-145.69;100.00;72389.50;5074758;28;20226;-73
2022/04/27 05:50:00;;;;;;;12.00;7.07;;;;;;;-145.69;100.00;72387.50;5075141;28;20256;-73
2022/04/27 05:52:26;;;;;;;12.13;7.40;;;;;;;-145.69;100.00;72379.53;5074588;28;20198;-73
2022/04/27 05:54:53;;;;;;;13.37;7.47;;;;;;;-145.69;100.00;72361.63;5074730;28;20211;-73
2022/04/27 05:57:20;;;;;;;12.73;6.93;;;;;;;-145.69;100.00;72365.59;5074440;28;20223;-73
2022/04/27 05:59:47;;;;;;;12.30;7.33;;;;;;;-145.69;100.00;72385.50;5074113;28;20253;-73
2022/04/27 06:02:13;;;;;;;10.67;7.37;;;;;;;-145.69;100.00;72331.78;5074537;28;20203;-72
2022/04/27 06:04:40;;;;;;;11.20;6.27;;;;;;;-145.69;100.00;72361.63;5074833;28;20207;-73
2022/04/27 06:07:08;;;;;;;13.97;8.17;;;;;;;-145.69;100.00;72373.56;5074547;28;20207;-72
2022/04/27 06:09:35;;;;;;;12.57;7.50;;;;;;;-145.69;100.00;72389.50;5074547;28;20227;-73
2022/04/27 06:12:01;;;;;;;11.23;6.77;;;;;;;-145.69;100.00;72369.59;5074419;28;20209;-73
2022/04/27 06:14:30;;;;;;;15.07;7.93;;;;;;;-145.69;100.00;72353.66;5074262;28;20202;-73
2022/04/27 06:16:58;;;;;;;11.00;7.13;;;;;;;-145.69;100.00;72345.69;5074340;28;20280;-73
2022/04/27 06:19:24;;;;;;;13.50;7.60;;;;;;;-145.69;100.00;72337.75;5074554;28;20203;-73
2022/04/27 06:21:51;;;;;;;13.70;7.23;;;;;;;-145.69;100.00;72365.59;5071035;28;20206;-73
2022/04/27 06:24:18;;;;;;;13.50;8.77;;;;;;;-145.69;100.00;72363.63;5073437;28;20933;-73
2022/04/27 06:26:45;;;;;;;12.73;7.83;;;;;;;-145.69;100.00;72359.63;5074208;28;20539;-73
2022/04/27 06:29:11;;;;;;;12.10;6.90;;;;;;;-145.69;100.00;72337.75;5074003;28;20203;-73
2022/04/27 06:31:38;;;;;;;8.93;5.77;;;;;;;-145.69;100.00;72291.97;5073921;28;20194;-73
2022/04/27 06:34:04;;;;;;;7.50;4.73;;;;;;;-145.69;100.00;72315.84;5074211;28;20222;-73
2022/04/27 06:36:31;;;;;;;10.03;4.40;;;;;;;-145.69;100.00;72321.81;5073703;28;20226;-73
2022/04/27 06:38:57;;;;;;;7.53;4.20;;;;;;;-145.69;100.00;72297.94;5073919;28;20206;-73
2022/04/27 06:41:25;;;;;;;5.40;3.27;;;;;;;-145.69;100.00;72305.91;5073857;28;20203;-73
2022/04/27 06:43:51;;;;;;;5.27;3.73;;;;;;;-145.69;100.00;72321.81;5073833;28;20207;-73
2022/04/27 06:46:19;;;;;;;12.87;4.27;;;;;;;-145.69;100.00;72297.94;5073911;28;20203;-73
2022/04/27 06:48:45;;;;;;;4.43;2.63;;;;;;;-145.69;100.00;72270.06;5073786;28;20787;-73
2022/04/27 06:51:12;;;;;;;3.80;2.50;;;;;;;-145.69;100.00;72282.00;5073823;28;20623;-72
2022/04/27 06:53:38;;;;;;;2.63;1.87;;;;;;;-145.69;98.44;72240.22;5072768;28;20653;-73
2022/04/27 06:56:05;;;;;;;3.43;2.57;;;;;;;-145.69;96.86;72222.31;5073102;28;20198;-73
2022/04/27 06:58:32;;;;;;;3.50;2.30;;;;;;;-145.69;97.44;72218.31;5073307;28;20226;-73
2022/04/27 07:00:59;;;;;;;3.70;2.30;;;;;;;-145.69;89.95;72202.41;5073607;28;20203;-73
2022/04/27 07:03:26;;;;;;;2.53;1.90;;;;;;;-145.69;94.09;72212.34;5073043;28;20652;-73
2022/04/27 07:05:54;;;;;;;2.00;1.80;;;;;;;-145.69;90.74;72160.59;5073423;28;20202;-73
2022/04/27 07:08:20;;;;;;;3.57;2.17;;;;;;;-145.69;94.47;72180.50;5073430;28;20234;-73
2022/04/27 07:10:49;;;;;;;2.70;2.20;;;;;;;-145.69;88.60;72160.59;5073479;28;20199;-73
2022/04/27 07:13:15;;;;;;;2.30;1.80;;;;;;;-145.69;85.68;72150.66;5073501;28;20289;-73
2022/04/27 07:15:43;;;;;;;2.83;2.00;;;;;;;-145.69;86.75;72146.69;5073522;28;20207;-73
2022/04/27 07:18:10;;;;;;;2.40;1.90;;;;;;;-145.69;91.87;72198.41;5073176;28;20249;-73
2022/04/27 07:20:37;;;;;;;3.22;2.13;;;;;;;-145.69;91.06;72202.41;5072790;28;20438;-73
2022/04/27 07:23:03;;;;;;;3.43;2.10;;;;;;;-145.69;93.40;72202.41;5072838;28;20203;-73
2022/04/27 07:25:30;;;;;;;3.20;2.43;;;;;;;-145.69;89.84;72206.38;5073076;28;20657;-73
2022/04/27 07:27:56;;;;;;;2.57;2.17;;;;;;;-145.69;92.57;72200.41;5073032;28;20198;-73
2022/04/27 07:30:23;;;;;;;4.13;2.37;;;;;;;-145.69;88.67;72190.47;5072596;28;20199;-73
2022/04/27 07:32:51;;;;;;;3.13;1.73;;;;;;;-145.69;87.28;72166.56;5072780;28;20293;-73
2022/04/27 07:35:20;;;;;;;3.20;1.97;;;;;;;-145.69;89.00;72178.53;5073070;28;20206;-73
2022/04/27 07:37:47;;;;;;;2.80;2.00;;;;;;;-145.69;92.68;72188.47;5072751;28;20226;-74
2022/04/27 07:40:14;;;;;;;3.03;1.90;;;;;;;-145.69;91.76;72170.56;5073241;28;20210;-73
2022/04/27 07:42:41;;;;;;;4.17;2.07;;;;;;;-145.69;93.08;72152.66;5072790;28;20256;-74
2022/04/27 07:45:08;;;;;;;2.63;1.83;;;;;;;-145.69;87.92;72140.69;5073003;28;20204;-75
2022/04/27 07:47:40;;;;;;;2.67;2.00;;;;;;;-145.69;87.30;72150.66;5072900;28;20661;-74
2022/04/27 07:50:09;;;;;;;5.17;1.83;;;;;;;-145.69;88.04;72190.47;5072952;28;20198;-76
2022/04/27 07:52:36;;;;;;;2.77;1.93;;;;;;;-145.69;91.36;72168.56;5072683;28;20278;-76
2022/04/27 07:55:02;;;;;;;3.20;1.80;;;;;;;-145.69;93.35;72142.69;5072757;28;20203;-75
2022/04/27 07:57:30;;;;;;;2.47;1.93;;;;;;;-145.69;89.35;72102.88;5072632;28;20563;-75
2022/04/27 07:59:56;;;;;;;2.53;1.63;;;;;;;-145.69;85.64;72051.16;5072769;28;20199;-75
2022/04/27 08:02:23;;;;;;;7.13;1.93;;;;;;;-145.69;79.95;72029.25;5072466;28;20657;-74
2022/04/27 08:04:49;;;;;;;1.57;1.30;;;;;;;-145.69;82.91;72019.31;5072615;28;20527;-75
2022/04/27 08:07:17;;;;;;;3.23;1.73;;;;;;;-145.69;84.73;72043.19;5072925;28;20209;-75
2022/04/27 08:09:44;;;;;;;1.67;1.50;;;;;;;-145.69;81.99;72021.28;5076982;28;20657;-75
2022/04/27 08:12:10;;;;;;;1.97;1.60;;;;;;;-145.69;78.31;72031.25;5076808;28;20198;-74
2022/04/27 08:14:37;;;;;;;1.70;1.40;;;;;;;-145.69;75.22;71979.50;5076835;28;20194;-74
2022/04/27 08:17:05;;;;;;;1.97;1.57;;;;;;;-145.69;77.02;72009.34;5075888;28;20277;-74
2022/04/27 08:19:31;;;;;;;1.97;1.40;;;;;;;-145.69;78.67;72021.28;5076451;28;20209;-75
2022/04/27 08:21:59;;;;;;;3.37;1.80;;;;;;;-145.69;78.28;72047.16;5073596;28;20194;-74
2022/04/27 08:24:27;;;;;;;3.10;1.50;;;;;;;-145.69;82.85;72033.22;5076326;28;20662;-75
2022/04/27 08:26:54;;;;;;;1.90;1.50;;;;;;;-145.69;73.91;72003.38;5076479;28;20202;-75
2022/04/27 08:29:20;;;;;;;3.07;1.90;;;;;;;-145.69;81.05;71953.63;5076291;28;20252;-74
2022/04/27 08:31:46;;;;;;;2.27;1.77;;;;;;;-145.69;77.57;71955.63;5076441;28;20202;-74
2022/04/27 08:34:13;;;;;;;1.30;1.20;;;;;;;-145.69;80.89;71913.81;5076313;28;20235;-74
2022/04/27 08:36:39;;;;;;;3.93;2.67;;;;;;;-145.69;80.74;72019.31;5076493;28;20213;-74
2022/04/27 08:39:06;;;;;;;3.13;2.30;;;;;;;-145.69;84.58;72017.31;5076244;28;20229;-74
2022/04/27 08:41:34;;;;;;;4.50;2.60;;;;;;;-145.69;84.39;71973.53;5076009;28;20293;-74
2022/04/27 08:44:00;;;;;;;3.70;2.37;;;;;;;-145.69;81.35;71975.50;5073317;28;20195;-74
2022/04/27 08:46:29;;;;;;;3.03;2.30;;;;;;;-145.69;84.86;72011.34;5073196;28;20658;-74
2022/04/27 08:48:55;;;;;;;3.30;2.43;;;;;;;-145.69;83.92;71987.47;5075760;28;20737;-74
2022/04/27 08:51:22;;;;;;;3.27;2.23;;;;;;;-145.69;80.44;72017.31;5076193;28;20203;-74
2022/04/27 08:53:48;;;;;;;3.20;2.47;;;;;;;-145.69;84.78;72019.31;5075715;28;20202;-74
2022/04/27 08:56:16;;;;;;;3.57;2.33;;;;;;;-145.69;83.55;72035.22;5075989;28;20198;-74
2022/04/27 08:58:44;;;;;;;3.50;2.37;;;;;;;-145.69;85.01;72055.13;5075773;28;20317;-73
2022/04/27 09:01:12;;;;;;;2.90;2.10;;;;;;;-145.69;87.75;72049.16;5075335;28;20209;-74
2022/04/27 09:03:40;;;;;;;3.37;2.23;;;;;;;-145.69;87.21;72063.09;5075967;28;20199;-74
2022/04/27 09:06:08;;;;;;;8.83;2.57;;;;;;;-145.69;82.23;72033.22;5075851;28;20205;-73
2022/04/27 09:08:40;;;;;;;3.00;2.40;;;;;;;-145.69;77.07;72051.16;5075708;28;20213;-74
2022/04/27 09:11:20;;;;;;;3.23;2.33;;;;;;;-145.69;77.83;71967.56;5075636;28;20202;-74
2022/04/27 09:13:50;;;;;;;4.73;2.13;;;;;;;-145.69;77.28;71965.56;5075184;28;20242;-74
2022/04/27 09:16:18;;;;;;;2.70;2.00;;;;;;;-145.69;76.55;71979.50;5075353;28;20199;-73
2022/04/27 09:21:58;;;;;;;3.33;2.40;;;;;;;-145.69;76.13;71927.75;5075331;28;20221;-74
2022/04/27 09:24:24;;;;;;;2.67;2.00;;;;;;;-145.69;72.87;71880.00;5075633;28;20238;-74
2022/04/27 09:27:16;;;;;;;2.53;1.90;;;;;;;-145.69;74.47;71862.06;5075517;28;20202;-74
2022/04/27 09:29:44;;;;;;;1.88;1.60;;;;;;;-145.69;71.89;71840.19;5075279;28;20748;-74
2022/04/27 09:32:16;;;;;;;2.92;1.30;;;;;;;-145.69;65.33;71822.28;5075252;28;20209;-74
2022/04/27 09:34:46;;;;;;;2.07;1.50;;;;;;;-145.69;66.11;71752.63;5075067;28;20923;-73
2022/04/27 09:37:15;;;;;;;4.32;1.60;;;;;;;-145.69;69.71;71724.75;5075170;28;20236;-74
2022/04/27 09:39:42;;;;;;;1.63;1.50;;;;;;;-145.69;64.61;71768.53;5075059;28;20264;-74
2022/04/27 09:42:10;;;;;;;2.30;1.75;;;;;;;-145.69;70.28;71796.41;5075002;28;20654;-74
2022/04/27 09:47:27;;;;;;;2.13;1.60;;;;;;;-145.69;67.50;71784.47;5073655;28;20206;-74
2022/04/27 09:49:55;;;;;;;2.30;1.40;;;;;;;-145.69;68.72;71806.34;5074454;28;20206;-75
2022/04/27 09:52:23;;;;;;;2.13;1.52;;;;;;;-145.69;66.53;71836.22;5074139;28;20206;-75
2022/04/27 09:54:51;;;;;;;1.83;1.20;;;;;;;-145.69;66.22;71844.16;5074905;28;20229;-74
2022/04/27 09:57:18;;;;;;;1.45;1.30;;;;;;;-145.69;68.08;71836.22;5074542;28;20202;-74
2022/04/27 09:59:49;;;;;;;1.45;1.23;;;;;;;-145.69;66.01;71788.44;5074778;28;20561;-75
2022/04/27 10:02:23;;;;;;;2.30;1.30;;;;;;;-145.69;67.70;71748.66;5074351;28;20203;-75
2022/04/27 10:04:51;;;;;;;1.92;1.42;;;;;;;-145.69;63.29;71766.56;5074342;28;20201;-74
2022/04/27 10:07:22;;;;;;;2.85;1.88;;;;;;;-145.69;66.08;71776.50;5074546;28;20249;-74
2022/04/27 10:09:49;;;;;;;2.10;1.60;;;;;;;-145.69;65.21;71732.72;5073669;28;20430;-75
2022/04/27 10:12:16;;;;;;;2.67;1.73;;;;;;;-145.69;67.20;71716.81;5074563;28;20302;-75
2022/04/27 10:14:43;;;;;;;1.50;1.40;;;;;;;-145.69;63.09;71724.75;5074350;28;20594;-75
2022/04/27 10:17:12;;;;;;;1.75;1.40;;;;;;;-145.69;65.86;71784.47;5064975;28;20238;-75
2022/04/27 10:19:44;;;;;;;2.20;1.60;;;;;;;-145.69;65.95;71708.84;5054391;28;20308;-75
2022/04/27 10:22:25;;;;;;;1.52;1.27;;;;;;;-145.69;66.38;71712.81;5054510;28;20207;-75
2022/04/27 10:24:51;;;;;;;1.88;1.40;;;;;;;-145.69;65.80;71748.66;5054474;28;20223;-75
2022/04/27 10:27:19;;;;;;;3.50;1.50;;;;;;;-145.69;66.95;71653.13;5054288;28;20207;-75
2022/04/27 10:29:49;;;;;;;1.65;1.20;;;;;;;-145.69;62.40;71561.59;5053405;28;20597;-75
2022/04/27 10:32:36;;;;;;;1.35;1.15;;;;;;;-145.69;60.39;71651.13;5054046;28;20204;-75
2022/04/27 10:35:18;;;;;;;3.50;1.20;;;;;;;-145.69;60.48;71690.94;5056131;28;20578;-75
2022/04/27 10:37:46;;;;;;;1.92;1.30;;;;;;;-145.69;61.99;71768.53;5073968;28;20222;-76
2022/04/27 10:40:42;;;;;;;4.43;2.70;;;;;;;-145.69;69.90;71840.19;5074037;28;20226;-75
2022/04/27 10:43:13;;;;;;;3.75;2.30;;;;;;;-145.69;69.54;71840.19;5060427;28;20207;-74
2022/04/27 10:45:41;;;;;;;2.55;1.60;;;;;;;-145.69;68.75;71804.38;5074012;28;20206;-75
2022/04/27 10:48:16;;;;;;;2.53;1.80;;;;;;;-145.69;69.88;71828.25;5073848;28;20210;-75
2022/04/27 10:50:55;;;;;;;3.15;1.92;;;;;;;-145.69;70.90;71880.00;5073764;28;20202;-75
2022/04/27 10:53:23;;;;;;;2.15;1.50;;;;;;;-145.69;67.45;71816.31;5073442;28;20206;-75
2022/04/27 10:55:54;;;;;;;2.72;1.52;;;;;;;-145.69;64.56;71760.59;5073578;28;20260;-75
2022/04/27 10:58:32;;;;;;;5.20;1.70;;;;;;;-145.69;67.53;71766.56;5073356;28;20226;-75
2022/04/27 11:01:27;;;;;;;2.22;1.60;;;;;;;-145.69;66.26;71784.47;5073279;28;20238;-75
2022/04/27 11:04:06;;;;;;;3.13;1.73;;;;;;;-145.69;65.43;71796.41;5073460;28;20700;-75
2022/04/27 11:07:22;;;;;;;2.30;1.92;;;;;;;-145.69;68.07;71880.00;5073752;28;20198;-75
2022/04/27 11:10:15;;;;;;;2.60;1.98;;;;;;;-145.69;67.74;71836.22;5073315;28;20202;-75
2022/04/27 11:12:46;;;;;;;3.42;1.90;;;;;;;-145.69;65.53;71786.47;5073523;28;20195;-75
2022/04/27 11:15:18;;;;;;;2.97;1.70;;;;;;;-145.69;68.85;71782.47;5073709;28;20233;-75
2022/04/27 11:17:45;;;;;;;3.65;1.92;;;;;;;-145.69;65.86;71722.78;5072703;28;20706;-75
2022/04/27 11:20:33;;;;;;;3.53;2.20;;;;;;;-145.69;64.56;71720.78;5073407;28;20214;-75
2022/04/27 11:23:03;;;;;;;2.45;1.67;;;;;;;-145.69;64.24;71682.97;5073447;28;20214;-75
2022/04/27 11:25:31;;;;;;;2.25;1.70;;;;;;;-145.69;67.48;71631.25;5073296;28;20203;-75
2022/04/27 11:27:58;;;;;;;2.63;1.70;;;;;;;-145.69;62.49;71657.09;5072964;28;20222;-75
2022/04/27 11:30:25;;;;;;;3.55;1.90;;;;;;;-145.69;56.62;71607.34;5073222;28;20199;-75
2022/04/27 11:32:52;;;;;;;3.17;2.05;;;;;;;-145.69;51.83;71543.69;5071960;28;20789;-75